sensor_id;sensor_type;location;lat;lon;timestamp;temperature;humidity
15574;DHT22;7888;46.748;8.102;2023-08-31T00:00:45;17.80;54.70
15574;DHT22;7888;46.748;8.102;2023-08-31T00:03:12;17.80;54.80
15574;DHT22;7888;46.748;8.102;2023-08-31T00:05:41;17.70;54.80
15574;DHT22;7888;46.748;8.102;2023-08-31T00:08:08;17.70;54.70
15574;DHT22;7888;46.748;8.102;2023-08-31T00:10:35;17.70;54.70
15574;DHT22;7888;46.748;8.102;2023-08-31T00:13:02;17.70;54.80
15574;DHT22;7888;46.748;8.102;2023-08-31T00:15:28;17.70;54.80
15574;DHT22;7888;46.748;8.102;2023-08-31T00:17:55;17.70;54.80
15574;DHT22;7888;46.748;8.102;2023-08-31T00:20:20;17.70;54.80
15574;DHT22;7888;46.748;8.102;2023-08-31T00:22:47;17.70;54.80
15574;DHT22;7888;46.748;8.102;2023-08-31T00:25:13;17.70;54.90
15574;DHT22;7888;46.748;8.102;2023-08-31T00:27:39;17.70;54.90
15574;DHT22;7888;46.748;8.102;2023-08-31T00:30:07;17.60;54.90
15574;DHT22;7888;46.748;8.102;2023-08-31T00:32:34;17.60;54.70
15574;DHT22;7888;46.748;8.102;2023-08-31T00:35:00;17.60;54.70
15574;DHT22;7888;46.748;8.102;2023-08-31T00:37:26;17.60;54.80
15574;DHT22;7888;46.748;8.102;2023-08-31T00:39:52;17.60;54.80
15574;DHT22;7888;46.748;8.102;2023-08-31T00:42:18;17.60;54.90
15574;DHT22;7888;46.748;8.102;2023-08-31T00:44:44;17.50;54.90
15574;DHT22;7888;46.748;8.102;2023-08-31T00:47:13;17.50;54.80
15574;DHT22;7888;46.748;8.102;2023-08-31T00:49:40;17.50;54.90
15574;DHT22;7888;46.748;8.102;2023-08-31T00:52:07;17.50;55.00
15574;DHT22;7888;46.748;8.102;2023-08-31T00:54:34;17.50;55.00
15574;DHT22;7888;46.748;8.102;2023-08-31T00:57:00;17.40;55.00
15574;DHT22;7888;46.748;8.102;2023-08-31T00:59:26;17.40;55.00
15574;DHT22;7888;46.748;8.102;2023-08-31T01:13:40;17.30;55.20
15574;DHT22;7888;46.748;8.102;2023-08-31T01:16:11;17.30;55.00
15574;DHT22;7888;46.748;8.102;2023-08-31T01:18:39;17.30;54.90
15574;DHT22;7888;46.748;8.102;2023-08-31T01:21:20;17.20;54.90
15574;DHT22;7888;46.748;8.102;2023-08-31T01:23:55;17.20;54.90
15574;DHT22;7888;46.748;8.102;2023-08-31T01:26:23;17.20;55.20
15574;DHT22;7888;46.748;8.102;2023-08-31T01:28:51;17.20;55.10
15574;DHT22;7888;46.748;8.102;2023-08-31T01:31:18;17.20;55.20
15574;DHT22;7888;46.748;8.102;2023-08-31T01:33:44;17.20;55.40
15574;DHT22;7888;46.748;8.102;2023-08-31T01:36:28;17.10;55.40
15574;DHT22;7888;46.748;8.102;2023-08-31T01:39:35;17.10;55.70
15574;DHT22;7888;46.748;8.102;2023-08-31T01:42:11;17.10;56.00
15574;DHT22;7888;46.748;8.102;2023-08-31T01:44:39;17.10;55.70
15574;DHT22;7888;46.748;8.102;2023-08-31T01:47:06;17.00;55.70
15574;DHT22;7888;46.748;8.102;2023-08-31T01:49:41;17.00;55.80
15574;DHT22;7888;46.748;8.102;2023-08-31T01:52:08;17.00;56.30
15574;DHT22;7888;46.748;8.102;2023-08-31T01:54:35;17.00;56.00
15574;DHT22;7888;46.748;8.102;2023-08-31T01:57:03;17.00;56.10
15574;DHT22;7888;46.748;8.102;2023-08-31T01:59:29;16.90;56.00
15574;DHT22;7888;46.748;8.102;2023-08-31T02:01:55;16.90;56.10
15574;DHT22;7888;46.748;8.102;2023-08-31T02:04:21;16.90;56.10
15574;DHT22;7888;46.748;8.102;2023-08-31T02:06:46;16.90;56.20
15574;DHT22;7888;46.748;8.102;2023-08-31T02:09:13;16.90;56.40
15574;DHT22;7888;46.748;8.102;2023-08-31T02:11:39;16.90;56.40
15574;DHT22;7888;46.748;8.102;2023-08-31T02:14:05;16.90;56.50
15574;DHT22;7888;46.748;8.102;2023-08-31T02:16:32;16.90;56.50
15574;DHT22;7888;46.748;8.102;2023-08-31T02:18:58;16.90;56.50
15574;DHT22;7888;46.748;8.102;2023-08-31T02:21:24;16.80;56.50
15574;DHT22;7888;46.748;8.102;2023-08-31T02:23:50;16.80;56.50
15574;DHT22;7888;46.748;8.102;2023-08-31T02:26:16;16.80;56.60
15574;DHT22;7888;46.748;8.102;2023-08-31T02:28:41;16.80;56.70
15574;DHT22;7888;46.748;8.102;2023-08-31T02:31:09;16.80;56.80
15574;DHT22;7888;46.748;8.102;2023-08-31T02:33:35;16.80;56.80
15574;DHT22;7888;46.748;8.102;2023-08-31T02:36:01;16.80;56.90
15574;DHT22;7888;46.748;8.102;2023-08-31T02:38:27;16.80;56.90
15574;DHT22;7888;46.748;8.102;2023-08-31T02:40:53;16.80;57.00
15574;DHT22;7888;46.748;8.102;2023-08-31T02:43:19;16.80;57.00
15574;DHT22;7888;46.748;8.102;2023-08-31T02:45:44;16.80;57.00
15574;DHT22;7888;46.748;8.102;2023-08-31T02:48:10;16.90;57.10
15574;DHT22;7888;46.748;8.102;2023-08-31T02:50:37;16.90;57.10
15574;DHT22;7888;46.748;8.102;2023-08-31T02:53:03;16.90;57.10
15574;DHT22;7888;46.748;8.102;2023-08-31T02:55:32;16.90;57.10
15574;DHT22;7888;46.748;8.102;2023-08-31T02:57:59;17.00;57.20
15574;DHT22;7888;46.748;8.102;2023-08-31T03:00:24;17.00;57.10
15574;DHT22;7888;46.748;8.102;2023-08-31T03:02:51;17.00;57.00
15574;DHT22;7888;46.748;8.102;2023-08-31T03:05:18;17.00;57.00
15574;DHT22;7888;46.748;8.102;2023-08-31T03:07:44;17.00;57.00
15574;DHT22;7888;46.748;8.102;2023-08-31T03:10:10;17.00;57.00
15574;DHT22;7888;46.748;8.102;2023-08-31T03:12:36;17.00;57.10
15574;DHT22;7888;46.748;8.102;2023-08-31T03:15:02;17.00;57.10
15574;DHT22;7888;46.748;8.102;2023-08-31T03:17:28;17.00;57.20
15574;DHT22;7888;46.748;8.102;2023-08-31T03:19:54;17.00;57.20
15574;DHT22;7888;46.748;8.102;2023-08-31T03:22:19;17.00;57.30
15574;DHT22;7888;46.748;8.102;2023-08-31T03:24:45;17.00;57.30
15574;DHT22;7888;46.748;8.102;2023-08-31T03:27:11;17.00;57.30
15574;DHT22;7888;46.748;8.102;2023-08-31T03:29:36;17.00;57.30
15574;DHT22;7888;46.748;8.102;2023-08-31T03:32:02;17.00;57.30
15574;DHT22;7888;46.748;8.102;2023-08-31T03:34:29;17.00;57.40
15574;DHT22;7888;46.748;8.102;2023-08-31T03:36:56;17.00;57.40
15574;DHT22;7888;46.748;8.102;2023-08-31T03:39:23;17.00;57.30
15574;DHT22;7888;46.748;8.102;2023-08-31T03:41:50;17.00;57.30
15574;DHT22;7888;46.748;8.102;2023-08-31T03:44:16;17.00;57.20
15574;DHT22;7888;46.748;8.102;2023-08-31T03:46:42;17.10;57.10
15574;DHT22;7888;46.748;8.102;2023-08-31T03:49:08;17.00;57.00
15574;DHT22;7888;46.748;8.102;2023-08-31T03:51:34;17.00;57.00
15574;DHT22;7888;46.748;8.102;2023-08-31T03:54:01;17.00;56.90
15574;DHT22;7888;46.748;8.102;2023-08-31T03:56:27;17.00;56.90
15574;DHT22;7888;46.748;8.102;2023-08-31T03:58:53;17.00;56.90
15574;DHT22;7888;46.748;8.102;2023-08-31T04:01:19;17.00;56.90
15574;DHT22;7888;46.748;8.102;2023-08-31T04:03:45;17.00;57.00
15574;DHT22;7888;46.748;8.102;2023-08-31T04:06:11;17.00;56.90
15574;DHT22;7888;46.748;8.102;2023-08-31T04:08:37;17.00;56.80
15574;DHT22;7888;46.748;8.102;2023-08-31T04:11:02;16.90;56.70
15574;DHT22;7888;46.748;8.102;2023-08-31T04:13:28;16.90;56.70
15574;DHT22;7888;46.748;8.102;2023-08-31T04:15:54;16.90;56.80
15574;DHT22;7888;46.748;8.102;2023-08-31T04:18:21;16.90;56.80
15574;DHT22;7888;46.748;8.102;2023-08-31T04:20:51;16.90;57.30
15574;DHT22;7888;46.748;8.102;2023-08-31T04:23:21;16.90;57.00
15574;DHT22;7888;46.748;8.102;2023-08-31T04:25:47;16.90;56.80
15574;DHT22;7888;46.748;8.102;2023-08-31T04:28:13;16.80;56.90
15574;DHT22;7888;46.748;8.102;2023-08-31T04:30:40;16.80;57.10
15574;DHT22;7888;46.748;8.102;2023-08-31T04:33:06;16.80;57.00
15574;DHT22;7888;46.748;8.102;2023-08-31T04:35:33;16.80;56.90
15574;DHT22;7888;46.748;8.102;2023-08-31T04:37:59;16.80;56.90
15574;DHT22;7888;46.748;8.102;2023-08-31T04:40:27;16.80;57.50
15574;DHT22;7888;46.748;8.102;2023-08-31T04:42:54;16.80;56.90
15574;DHT22;7888;46.748;8.102;2023-08-31T04:45:20;16.80;56.90
15574;DHT22;7888;46.748;8.102;2023-08-31T04:47:46;16.80;56.90
15574;DHT22;7888;46.748;8.102;2023-08-31T04:50:12;16.70;56.90
15574;DHT22;7888;46.748;8.102;2023-08-31T04:52:37;16.70;57.00
15574;DHT22;7888;46.748;8.102;2023-08-31T04:55:06;16.70;57.60
15574;DHT22;7888;46.748;8.102;2023-08-31T04:57:36;16.70;57.20
15574;DHT22;7888;46.748;8.102;2023-08-31T05:00:02;16.70;57.20
15574;DHT22;7888;46.748;8.102;2023-08-31T05:02:30;16.70;57.20
15574;DHT22;7888;46.748;8.102;2023-08-31T05:04:55;16.70;57.30
15574;DHT22;7888;46.748;8.102;2023-08-31T05:07:21;16.70;57.30
15574;DHT22;7888;46.748;8.102;2023-08-31T05:09:47;16.70;57.50
15574;DHT22;7888;46.748;8.102;2023-08-31T05:12:13;16.70;57.50
15574;DHT22;7888;46.748;8.102;2023-08-31T05:14:38;16.70;57.60
15574;DHT22;7888;46.748;8.102;2023-08-31T05:17:05;16.70;57.60
15574;DHT22;7888;46.748;8.102;2023-08-31T05:19:31;16.70;57.70
15574;DHT22;7888;46.748;8.102;2023-08-31T05:21:57;16.70;57.70
15574;DHT22;7888;46.748;8.102;2023-08-31T05:24:23;16.70;57.70
15574;DHT22;7888;46.748;8.102;2023-08-31T05:26:49;16.70;57.80
15574;DHT22;7888;46.748;8.102;2023-08-31T05:29:15;16.70;57.80
15574;DHT22;7888;46.748;8.102;2023-08-31T05:31:41;16.70;57.90
15574;DHT22;7888;46.748;8.102;2023-08-31T05:34:09;16.80;58.10
15574;DHT22;7888;46.748;8.102;2023-08-31T05:36:36;16.80;58.30
15574;DHT22;7888;46.748;8.102;2023-08-31T05:39:02;16.80;58.30
15574;DHT22;7888;46.748;8.102;2023-08-31T05:41:28;16.90;58.40
15574;DHT22;7888;46.748;8.102;2023-08-31T05:43:54;16.90;58.40
15574;DHT22;7888;46.748;8.102;2023-08-31T05:46:20;16.90;58.30
15574;DHT22;7888;46.748;8.102;2023-08-31T05:48:45;17.00;58.30
15574;DHT22;7888;46.748;8.102;2023-08-31T05:51:11;17.00;58.30
15574;DHT22;7888;46.748;8.102;2023-08-31T05:53:37;17.00;58.30
15574;DHT22;7888;46.748;8.102;2023-08-31T05:56:03;17.00;58.30
15574;DHT22;7888;46.748;8.102;2023-08-31T05:58:33;17.10;58.40
15574;DHT22;7888;46.748;8.102;2023-08-31T06:01:00;17.10;58.40
15574;DHT22;7888;46.748;8.102;2023-08-31T06:03:27;17.10;58.30
15574;DHT22;7888;46.748;8.102;2023-08-31T06:05:55;17.10;58.20
15574;DHT22;7888;46.748;8.102;2023-08-31T06:08:22;17.10;58.20
15574;DHT22;7888;46.748;8.102;2023-08-31T06:10:48;17.20;58.30
15574;DHT22;7888;46.748;8.102;2023-08-31T06:13:14;17.20;58.30
15574;DHT22;7888;46.748;8.102;2023-08-31T06:15:39;17.20;58.30
15574;DHT22;7888;46.748;8.102;2023-08-31T06:18:06;17.20;58.20
15574;DHT22;7888;46.748;8.102;2023-08-31T06:20:32;17.20;58.10
15574;DHT22;7888;46.748;8.102;2023-08-31T06:22:59;17.20;58.20
15574;DHT22;7888;46.748;8.102;2023-08-31T06:25:25;17.20;58.40
15574;DHT22;7888;46.748;8.102;2023-08-31T06:27:51;17.30;58.60
15574;DHT22;7888;46.748;8.102;2023-08-31T06:30:17;17.30;58.80
15574;DHT22;7888;46.748;8.102;2023-08-31T06:32:45;17.40;58.70
15574;DHT22;7888;46.748;8.102;2023-08-31T06:35:12;17.40;58.60
15574;DHT22;7888;46.748;8.102;2023-08-31T06:37:39;17.40;58.30
15574;DHT22;7888;46.748;8.102;2023-08-31T06:40:09;17.40;58.20
15574;DHT22;7888;46.748;8.102;2023-08-31T06:42:36;17.50;58.30
15574;DHT22;7888;46.748;8.102;2023-08-31T06:45:06;17.50;58.30
15574;DHT22;7888;46.748;8.102;2023-08-31T06:47:33;17.60;58.40
15574;DHT22;7888;46.748;8.102;2023-08-31T06:50:00;17.60;58.20
15574;DHT22;7888;46.748;8.102;2023-08-31T06:52:26;17.70;58.20
15574;DHT22;7888;46.748;8.102;2023-08-31T06:54:52;17.70;58.10
15574;DHT22;7888;46.748;8.102;2023-08-31T06:57:26;17.80;58.80
15574;DHT22;7888;46.748;8.102;2023-08-31T06:59:53;17.80;58.30
15574;DHT22;7888;46.748;8.102;2023-08-31T07:02:19;17.90;58.40
15574;DHT22;7888;46.748;8.102;2023-08-31T07:04:47;18.00;58.20
15574;DHT22;7888;46.748;8.102;2023-08-31T07:07:14;18.00;58.20
15574;DHT22;7888;46.748;8.102;2023-08-31T07:09:42;18.10;58.00
15574;DHT22;7888;46.748;8.102;2023-08-31T07:12:09;18.10;57.80
15574;DHT22;7888;46.748;8.102;2023-08-31T07:14:35;18.20;57.80
15574;DHT22;7888;46.748;8.102;2023-08-31T07:17:01;18.20;57.60
15574;DHT22;7888;46.748;8.102;2023-08-31T07:19:27;18.30;57.70
15574;DHT22;7888;46.748;8.102;2023-08-31T07:21:53;18.30;57.50
15574;DHT22;7888;46.748;8.102;2023-08-31T07:24:23;18.40;57.50
15574;DHT22;7888;46.748;8.102;2023-08-31T07:26:50;18.50;57.40
15574;DHT22;7888;46.748;8.102;2023-08-31T07:29:16;18.50;57.30
15574;DHT22;7888;46.748;8.102;2023-08-31T07:31:42;18.60;57.70
15574;DHT22;7888;46.748;8.102;2023-08-31T07:34:08;18.70;56.90
15574;DHT22;7888;46.748;8.102;2023-08-31T07:36:33;18.70;56.80
15574;DHT22;7888;46.748;8.102;2023-08-31T07:38:59;18.80;56.90
15574;DHT22;7888;46.748;8.102;2023-08-31T07:41:25;18.80;56.90
15574;DHT22;7888;46.748;8.102;2023-08-31T07:43:51;18.90;56.90
15574;DHT22;7888;46.748;8.102;2023-08-31T07:46:17;19.00;56.90
15574;DHT22;7888;46.748;8.102;2023-08-31T07:48:43;19.10;56.90
15574;DHT22;7888;46.748;8.102;2023-08-31T07:51:09;19.20;57.30
15574;DHT22;7888;46.748;8.102;2023-08-31T07:53:35;19.30;56.50
15574;DHT22;7888;46.748;8.102;2023-08-31T07:56:01;19.40;56.30
15574;DHT22;7888;46.748;8.102;2023-08-31T07:58:26;19.50;56.10
15574;DHT22;7888;46.748;8.102;2023-08-31T08:00:53;19.60;56.00
15574;DHT22;7888;46.748;8.102;2023-08-31T08:03:20;19.70;55.70
15574;DHT22;7888;46.748;8.102;2023-08-31T08:05:47;19.80;55.50
15574;DHT22;7888;46.748;8.102;2023-08-31T08:08:13;19.80;55.30
15574;DHT22;7888;46.748;8.102;2023-08-31T08:10:39;19.90;55.20
15574;DHT22;7888;46.748;8.102;2023-08-31T08:13:05;20.00;55.20
15574;DHT22;7888;46.748;8.102;2023-08-31T08:15:31;20.00;55.20
15574;DHT22;7888;46.748;8.102;2023-08-31T08:17:57;20.10;55.00
15574;DHT22;7888;46.748;8.102;2023-08-31T08:20:24;20.20;54.90
15574;DHT22;7888;46.748;8.102;2023-08-31T08:22:50;20.30;54.90
15574;DHT22;7888;46.748;8.102;2023-08-31T08:25:19;20.30;54.90
15574;DHT22;7888;46.748;8.102;2023-08-31T08:27:46;20.50;55.00
15574;DHT22;7888;46.748;8.102;2023-08-31T08:30:12;20.50;54.90
15574;DHT22;7888;46.748;8.102;2023-08-31T08:32:38;20.60;54.60
15574;DHT22;7888;46.748;8.102;2023-08-31T08:35:05;20.70;54.30
15574;DHT22;7888;46.748;8.102;2023-08-31T08:37:31;20.80;54.20
15574;DHT22;7888;46.748;8.102;2023-08-31T08:40:00;20.90;54.00
15574;DHT22;7888;46.748;8.102;2023-08-31T08:42:26;21.00;54.00
15574;DHT22;7888;46.748;8.102;2023-08-31T08:44:57;21.10;54.60
15574;DHT22;7888;46.748;8.102;2023-08-31T08:47:24;21.20;53.80
15574;DHT22;7888;46.748;8.102;2023-08-31T08:49:53;21.40;53.70
15574;DHT22;7888;46.748;8.102;2023-08-31T08:52:20;21.50;53.40
15574;DHT22;7888;46.748;8.102;2023-08-31T08:54:49;21.60;53.20
15574;DHT22;7888;46.748;8.102;2023-08-31T08:57:15;21.70;52.90
15574;DHT22;7888;46.748;8.102;2023-08-31T08:59:41;21.80;52.50
15574;DHT22;7888;46.748;8.102;2023-08-31T09:02:10;21.90;52.20
15574;DHT22;7888;46.748;8.102;2023-08-31T09:04:37;22.10;51.60
15574;DHT22;7888;46.748;8.102;2023-08-31T09:07:03;22.20;51.70
15574;DHT22;7888;46.748;8.102;2023-08-31T09:09:29;22.30;51.40
15574;DHT22;7888;46.748;8.102;2023-08-31T09:11:55;22.40;51.40
15574;DHT22;7888;46.748;8.102;2023-08-31T09:14:23;22.50;51.00
15574;DHT22;7888;46.748;8.102;2023-08-31T09:16:50;22.60;50.90
15574;DHT22;7888;46.748;8.102;2023-08-31T09:19:24;22.70;50.90
15574;DHT22;7888;46.748;8.102;2023-08-31T09:21:56;22.80;50.80
15574;DHT22;7888;46.748;8.102;2023-08-31T09:24:22;23.00;50.80
15574;DHT22;7888;46.748;8.102;2023-08-31T09:26:57;23.10;50.30
15574;DHT22;7888;46.748;8.102;2023-08-31T09:29:23;23.20;49.20
15574;DHT22;7888;46.748;8.102;2023-08-31T09:31:50;23.20;49.50
15574;DHT22;7888;46.748;8.102;2023-08-31T09:34:17;23.30;49.20
15574;DHT22;7888;46.748;8.102;2023-08-31T09:36:44;23.30;49.00
15574;DHT22;7888;46.748;8.102;2023-08-31T09:39:12;23.40;49.00
15574;DHT22;7888;46.748;8.102;2023-08-31T09:41:57;23.40;49.00
15574;DHT22;7888;46.748;8.102;2023-08-31T09:44:24;23.50;48.40
15574;DHT22;7888;46.748;8.102;2023-08-31T09:46:50;23.50;49.20
15574;DHT22;7888;46.748;8.102;2023-08-31T09:49:19;23.60;49.30
15574;DHT22;7888;46.748;8.102;2023-08-31T09:51:48;23.70;48.80
15574;DHT22;7888;46.748;8.102;2023-08-31T09:54:16;23.70;48.70
15574;DHT22;7888;46.748;8.102;2023-08-31T09:56:45;23.80;48.10
15574;DHT22;7888;46.748;8.102;2023-08-31T09:59:13;23.80;47.80
15574;DHT22;7888;46.748;8.102;2023-08-31T10:01:41;23.80;47.60
15574;DHT22;7888;46.748;8.102;2023-08-31T10:04:09;23.80;47.60
15574;DHT22;7888;46.748;8.102;2023-08-31T10:06:41;23.80;47.10
15574;DHT22;7888;46.748;8.102;2023-08-31T10:09:08;23.70;47.10
15574;DHT22;7888;46.748;8.102;2023-08-31T10:11:38;23.70;47.10
15574;DHT22;7888;46.748;8.102;2023-08-31T10:14:05;23.70;47.10
15574;DHT22;7888;46.748;8.102;2023-08-31T10:16:32;23.70;47.10
15574;DHT22;7888;46.748;8.102;2023-08-31T10:18:58;23.70;46.90
15574;DHT22;7888;46.748;8.102;2023-08-31T10:21:25;23.70;47.00
15574;DHT22;7888;46.748;8.102;2023-08-31T10:23:51;23.80;46.80
15574;DHT22;7888;46.748;8.102;2023-08-31T10:26:27;23.80;46.80
15574;DHT22;7888;46.748;8.102;2023-08-31T10:28:55;23.90;46.00
15574;DHT22;7888;46.748;8.102;2023-08-31T10:31:22;24.00;46.60
15574;DHT22;7888;46.748;8.102;2023-08-31T10:36:55;24.10;46.00
15574;DHT22;7888;46.748;8.102;2023-08-31T10:39:21;24.20;45.90
15574;DHT22;7888;46.748;8.102;2023-08-31T10:41:56;24.20;46.70
15574;DHT22;7888;46.748;8.102;2023-08-31T10:44:27;24.30;46.40
15574;DHT22;7888;46.748;8.102;2023-08-31T10:46:55;24.40;46.70
15574;DHT22;7888;46.748;8.102;2023-08-31T10:49:25;24.50;46.40
15574;DHT22;7888;46.748;8.102;2023-08-31T10:51:55;24.60;46.30
15574;DHT22;7888;46.748;8.102;2023-08-31T10:54:22;24.70;46.00
15574;DHT22;7888;46.748;8.102;2023-08-31T10:59:45;24.80;45.80
15574;DHT22;7888;46.748;8.102;2023-08-31T11:05:12;24.90;45.50
15574;DHT22;7888;46.748;8.102;2023-08-31T11:07:46;25.00;45.80
15574;DHT22;7888;46.748;8.102;2023-08-31T11:10:17;25.00;45.80
15574;DHT22;7888;46.748;8.102;2023-08-31T11:12:49;25.10;45.80
15574;DHT22;7888;46.748;8.102;2023-08-31T11:15:19;25.20;44.90
15574;DHT22;7888;46.748;8.102;2023-08-31T11:17:51;25.30;45.40
15574;DHT22;7888;46.748;8.102;2023-08-31T11:20:19;25.40;45.20
15574;DHT22;7888;46.748;8.102;2023-08-31T11:22:48;25.40;45.10
15574;DHT22;7888;46.748;8.102;2023-08-31T11:25:16;25.50;44.70
15574;DHT22;7888;46.748;8.102;2023-08-31T11:27:55;25.50;44.70
15574;DHT22;7888;46.748;8.102;2023-08-31T11:30:22;25.50;44.00
15574;DHT22;7888;46.748;8.102;2023-08-31T11:32:50;25.60;44.70
15574;DHT22;7888;46.748;8.102;2023-08-31T11:35:17;25.60;44.60
15574;DHT22;7888;46.748;8.102;2023-08-31T11:37:55;25.70;44.70
15574;DHT22;7888;46.748;8.102;2023-08-31T11:40:22;25.80;43.80
15574;DHT22;7888;46.748;8.102;2023-08-31T11:42:48;25.90;44.50
15574;DHT22;7888;46.748;8.102;2023-08-31T11:45:15;25.90;44.60
15574;DHT22;7888;46.748;8.102;2023-08-31T11:47:43;26.00;44.80
15574;DHT22;7888;46.748;8.102;2023-08-31T11:50:11;26.00;44.60
15574;DHT22;7888;46.748;8.102;2023-08-31T11:52:39;26.10;44.40
15574;DHT22;7888;46.748;8.102;2023-08-31T11:55:14;26.20;44.30
15574;DHT22;7888;46.748;8.102;2023-08-31T11:57:52;26.30;43.90
15574;DHT22;7888;46.748;8.102;2023-08-31T12:00:22;26.40;43.50
15574;DHT22;7888;46.748;8.102;2023-08-31T12:02:58;26.40;43.20
15574;DHT22;7888;46.748;8.102;2023-08-31T12:05:29;26.50;42.80
15574;DHT22;7888;46.748;8.102;2023-08-31T12:07:57;26.50;43.20
15574;DHT22;7888;46.748;8.102;2023-08-31T12:10:26;26.50;43.20
15574;DHT22;7888;46.748;8.102;2023-08-31T12:12:52;26.50;43.50
15574;DHT22;7888;46.748;8.102;2023-08-31T12:15:18;26.50;43.20
15574;DHT22;7888;46.748;8.102;2023-08-31T12:17:48;26.50;43.00
15574;DHT22;7888;46.748;8.102;2023-08-31T12:20:24;26.50;42.70
15574;DHT22;7888;46.748;8.102;2023-08-31T12:22:51;26.50;42.60
15574;DHT22;7888;46.748;8.102;2023-08-31T12:25:23;26.50;42.90
15574;DHT22;7888;46.748;8.102;2023-08-31T12:27:49;26.50;42.60
15574;DHT22;7888;46.748;8.102;2023-08-31T12:30:15;26.50;43.00
15574;DHT22;7888;46.748;8.102;2023-08-31T12:32:41;26.50;42.50
15574;DHT22;7888;46.748;8.102;2023-08-31T12:35:07;26.50;42.60
15574;DHT22;7888;46.748;8.102;2023-08-31T12:37:35;26.50;42.60
15574;DHT22;7888;46.748;8.102;2023-08-31T12:40:00;26.40;42.30
15574;DHT22;7888;46.748;8.102;2023-08-31T12:42:31;26.30;42.40
15574;DHT22;7888;46.748;8.102;2023-08-31T12:44:57;26.20;43.20
15574;DHT22;7888;46.748;8.102;2023-08-31T12:47:22;26.20;42.70
15574;DHT22;7888;46.748;8.102;2023-08-31T12:49:49;26.20;42.90
15574;DHT22;7888;46.748;8.102;2023-08-31T12:52:15;26.20;43.00
15574;DHT22;7888;46.748;8.102;2023-08-31T12:54:41;26.20;43.10
15574;DHT22;7888;46.748;8.102;2023-08-31T12:57:06;26.30;43.00
15574;DHT22;7888;46.748;8.102;2023-08-31T12:59:32;26.40;42.80
15574;DHT22;7888;46.748;8.102;2023-08-31T13:01:58;26.40;42.80
15574;DHT22;7888;46.748;8.102;2023-08-31T13:04:24;26.50;42.90
15574;DHT22;7888;46.748;8.102;2023-08-31T13:06:50;26.50;42.40
15574;DHT22;7888;46.748;8.102;2023-08-31T13:09:15;26.60;42.50
15574;DHT22;7888;46.748;8.102;2023-08-31T13:11:41;26.60;42.30
15574;DHT22;7888;46.748;8.102;2023-08-31T13:14:07;26.70;42.20
15574;DHT22;7888;46.748;8.102;2023-08-31T13:16:32;26.70;42.10
15574;DHT22;7888;46.748;8.102;2023-08-31T13:19:02;26.70;41.90
15574;DHT22;7888;46.748;8.102;2023-08-31T13:21:27;26.70;42.00
15574;DHT22;7888;46.748;8.102;2023-08-31T13:23:53;26.60;41.70
15574;DHT22;7888;46.748;8.102;2023-08-31T13:26:19;26.50;41.90
15574;DHT22;7888;46.748;8.102;2023-08-31T13:28:45;26.50;41.90
15574;DHT22;7888;46.748;8.102;2023-08-31T13:31:10;26.50;42.10
15574;DHT22;7888;46.748;8.102;2023-08-31T13:33:37;26.50;42.10
15574;DHT22;7888;46.748;8.102;2023-08-31T13:36:03;26.50;42.10
15574;DHT22;7888;46.748;8.102;2023-08-31T13:38:29;26.50;42.10
15574;DHT22;7888;46.748;8.102;2023-08-31T13:40:55;26.50;42.10
15574;DHT22;7888;46.748;8.102;2023-08-31T13:43:22;26.50;42.20
15574;DHT22;7888;46.748;8.102;2023-08-31T13:45:49;26.60;42.30
15574;DHT22;7888;46.748;8.102;2023-08-31T13:48:15;26.60;42.30
15574;DHT22;7888;46.748;8.102;2023-08-31T13:50:40;26.70;42.20
15574;DHT22;7888;46.748;8.102;2023-08-31T13:53:06;26.70;42.20
15574;DHT22;7888;46.748;8.102;2023-08-31T13:55:32;26.70;42.00
15574;DHT22;7888;46.748;8.102;2023-08-31T13:58:07;26.70;41.80
15574;DHT22;7888;46.748;8.102;2023-08-31T14:00:36;26.70;41.80
15574;DHT22;7888;46.748;8.102;2023-08-31T14:03:04;26.70;41.70
15574;DHT22;7888;46.748;8.102;2023-08-31T14:05:30;26.70;41.50
15574;DHT22;7888;46.748;8.102;2023-08-31T14:07:57;26.70;41.60
15574;DHT22;7888;46.748;8.102;2023-08-31T14:10:26;26.60;41.50
15574;DHT22;7888;46.748;8.102;2023-08-31T14:12:52;26.60;41.40
15574;DHT22;7888;46.748;8.102;2023-08-31T14:15:19;26.50;41.50
15574;DHT22;7888;46.748;8.102;2023-08-31T14:17:45;26.50;41.50
15574;DHT22;7888;46.748;8.102;2023-08-31T14:20:10;26.50;41.40
15574;DHT22;7888;46.748;8.102;2023-08-31T14:22:37;26.40;41.50
15574;DHT22;7888;46.748;8.102;2023-08-31T14:25:11;26.40;41.60
15574;DHT22;7888;46.748;8.102;2023-08-31T14:27:37;26.30;41.50
15574;DHT22;7888;46.748;8.102;2023-08-31T14:30:05;26.30;41.90
15574;DHT22;7888;46.748;8.102;2023-08-31T14:32:31;26.30;41.60
15574;DHT22;7888;46.748;8.102;2023-08-31T14:34:57;26.30;41.60
15574;DHT22;7888;46.748;8.102;2023-08-31T14:37:23;26.30;41.70
15574;DHT22;7888;46.748;8.102;2023-08-31T14:39:50;26.20;41.80
15574;DHT22;7888;46.748;8.102;2023-08-31T14:42:16;26.20;41.70
15574;DHT22;7888;46.748;8.102;2023-08-31T14:44:45;26.20;41.70
15574;DHT22;7888;46.748;8.102;2023-08-31T14:47:10;26.20;41.60
15574;DHT22;7888;46.748;8.102;2023-08-31T14:49:39;26.20;41.70
15574;DHT22;7888;46.748;8.102;2023-08-31T14:52:06;26.10;41.50
15574;DHT22;7888;46.748;8.102;2023-08-31T14:54:33;26.10;41.80
15574;DHT22;7888;46.748;8.102;2023-08-31T14:56:59;26.10;41.90
15574;DHT22;7888;46.748;8.102;2023-08-31T14:59:25;26.00;41.90
15574;DHT22;7888;46.748;8.102;2023-08-31T15:01:51;26.00;42.00
15574;DHT22;7888;46.748;8.102;2023-08-31T15:04:17;25.90;41.70
15574;DHT22;7888;46.748;8.102;2023-08-31T15:06:43;25.90;41.80
15574;DHT22;7888;46.748;8.102;2023-08-31T15:09:09;25.90;41.90
15574;DHT22;7888;46.748;8.102;2023-08-31T15:11:35;25.90;42.00
15574;DHT22;7888;46.748;8.102;2023-08-31T15:14:02;25.80;42.10
15574;DHT22;7888;46.748;8.102;2023-08-31T15:16:29;25.80;42.20
15574;DHT22;7888;46.748;8.102;2023-08-31T15:18:57;25.80;42.20
15574;DHT22;7888;46.748;8.102;2023-08-31T15:21:23;25.80;42.30
15574;DHT22;7888;46.748;8.102;2023-08-31T15:23:48;25.90;42.30
15574;DHT22;7888;46.748;8.102;2023-08-31T15:26:15;25.90;42.80
15574;DHT22;7888;46.748;8.102;2023-08-31T15:28:43;25.80;42.00
15574;DHT22;7888;46.748;8.102;2023-08-31T15:31:12;25.90;42.00
15574;DHT22;7888;46.748;8.102;2023-08-31T15:33:38;25.90;41.80
15574;DHT22;7888;46.748;8.102;2023-08-31T15:36:05;25.90;42.00
15574;DHT22;7888;46.748;8.102;2023-08-31T15:38:33;25.90;41.90
15574;DHT22;7888;46.748;8.102;2023-08-31T15:41:00;25.90;42.00
15574;DHT22;7888;46.748;8.102;2023-08-31T15:43:32;25.90;41.70
15574;DHT22;7888;46.748;8.102;2023-08-31T15:46:00;25.90;41.40
15574;DHT22;7888;46.748;8.102;2023-08-31T15:48:27;25.90;41.50
15574;DHT22;7888;46.748;8.102;2023-08-31T15:50:55;25.80;41.40
15574;DHT22;7888;46.748;8.102;2023-08-31T15:53:21;25.70;41.30
15574;DHT22;7888;46.748;8.102;2023-08-31T15:55:48;25.70;41.60
15574;DHT22;7888;46.748;8.102;2023-08-31T15:58:15;25.60;41.70
15574;DHT22;7888;46.748;8.102;2023-08-31T16:00:41;25.50;41.90
15574;DHT22;7888;46.748;8.102;2023-08-31T16:03:07;25.50;42.10
15574;DHT22;7888;46.748;8.102;2023-08-31T16:05:34;25.40;42.10